Time;durP1;ratioP1;P1;durP2;ratioP2;P2;SDS_P1;SDS_P2;PMS_P1;PMS_P2;Temp;Humidity;BMP_temperature;BMP_pressure;BME280_temperature;BME280_humidity;BME280_pressure;Samples;Min_cycle;Max_cycle;Signal;HPM_P1;HPM_P2
2023/09/30 00:02:15;;;;;;;;;;;;;;;20.74;44.56;101042.09;4957465;28;98448;-60
2023/09/30 00:04:41;;;;;;;;;;;;;;;20.72;44.80;101044.38;4962174;27;102284;-60
2023/09/30 00:07:07;;;;;;;;;;;;;;;20.69;44.53;101045.00;4961981;28;124392;-55
2023/09/30 00:09:33;;;;;;;;;;;;;;;20.68;44.61;101054.34;4958806;28;99328;-60
2023/09/30 00:12:00;;;;;;;;;;;;;;;20.66;44.78;101062.06;4944176;28;98989;-55
2023/09/30 00:14:26;;;;;;;;;;;;;;;20.64;44.79;101061.59;4945993;27;98124;-60
2023/09/30 00:16:52;;;;;;;;;;;;;;;20.63;44.79;101056.44;4956949;28;98276;-60
2023/09/30 00:19:19;;;;;;;;;;;;;;;20.61;45.14;101064.16;4943308;28;98142;-55
2023/09/30 00:21:45;;;;;;;;;;;;;;;20.59;45.25;101067.22;4944812;28;99957;-60
2023/09/30 00:24:11;;;;;;;;;;;;;;;20.57;45.42;101074.97;4960064;28;99321;-56
2023/09/30 00:26:37;;;;;;;;;;;;;;;20.55;46.40;101077.19;4948003;28;98486;-56
2023/09/30 00:29:04;;;;;;;;;;;;;;;20.51;48.59;101084.44;4927301;28;98985;-60
2023/09/30 00:31:31;;;;;;;;;;;;;;;20.47;46.14;101094.38;4957206;28;99440;-56
2023/09/30 00:33:57;;;;;;;;;;;;;;;20.42;46.05;101092.59;4962196;28;98681;-55
2023/09/30 00:36:23;;;;;;;;;;;;;;;20.39;45.61;101100.66;4978369;27;99568;-60
2023/09/30 00:38:49;;;;;;;;;;;;;;;20.35;45.92;101101.28;4941840;28;113955;-60
2023/09/30 00:41:15;;;;;;;;;;;;;;;20.30;45.83;101112.38;4946342;28;98525;-60
2023/09/30 00:43:41;;;;;;;;;;;;;;;20.25;45.98;101111.72;4960162;28;129637;-56
2023/09/30 00:46:25;;;;;;;;;;;;;;;20.20;46.35;101112.69;4958312;28;98032;-60
2023/09/30 00:48:51;;;;;;;;;;;;;;;20.14;46.54;101118.59;4973689;27;98320;-55
2023/09/30 00:51:18;;;;;;;;;;;;;;;20.09;48.37;101125.03;4973151;27;100124;-55
2023/09/30 00:53:44;;;;;;;;;;;;;;;20.03;48.19;101129.00;4972547;27;102250;-56
2023/09/30 00:56:10;;;;;;;;;;;;;;;19.96;48.22;101134.13;4942404;28;109814;-61
2023/09/30 00:58:36;;;;;;;;;;;;;;;19.86;47.50;101130.53;4940133;28;109129;-55
2023/09/30 01:01:02;;;;;;;;;;;;;;;19.81;47.89;101121.69;4945479;28;98672;-61
2023/09/30 01:03:28;;;;;;;;;;;;;;;19.75;48.01;101120.19;4957192;28;127478;-61
2023/09/30 01:05:55;;;;;;;;;;;;;;;19.69;47.62;101137.84;4928137;28;98588;-55
2023/09/30 01:08:21;;;;;;;;;;;;;;;19.65;48.04;101137.69;4941819;28;101350;-56
2023/09/30 01:10:48;;;;;;;;;;;;;;;19.60;47.54;101137.75;4945413;28;98191;-56
2023/09/30 01:13:14;;;;;;;;;;;;;;;19.54;48.14;101145.28;4942356;28;98111;-61
2023/09/30 01:15:40;;;;;;;;;;;;;;;19.50;47.29;101149.75;4925217;28;98854;-55
2023/09/30 01:18:06;;;;;;;;;;;;;;;19.48;47.87;101151.19;4969906;27;98060;-60
2023/09/30 01:20:33;;;;;;;;;;;;;;;19.44;47.56;101151.00;4939500;28;98172;-60
2023/09/30 01:22:59;;;;;;;;;;;;;;;19.41;47.36;101148.06;4932519;28;98070;-55
2023/09/30 01:25:25;;;;;;;;;;;;;;;19.38;47.51;101144.84;4978319;27;98870;-60
2023/09/30 01:27:51;;;;;;;;;;;;;;;19.36;46.99;101149.81;4958042;28;127163;-55
2023/09/30 01:30:18;;;;;;;;;;;;;;;19.35;47.37;101150.94;4942406;28;98300;-60
2023/09/30 01:32:44;;;;;;;;;;;;;;;19.34;47.02;101156.72;4944901;28;98107;-55
2023/09/30 01:35:11;;;;;;;;;;;;;;;19.29;47.49;101143.97;4927600;28;99407;-58
2023/09/30 01:37:37;;;;;;;;;;;;;;;19.27;47.36;101153.59;4957962;28;99585;-55
2023/09/30 01:40:07;;;;;;;;;;;;;;;19.25;47.14;101159.34;4926648;28;98416;-60
2023/09/30 01:42:33;;;;;;;;;;;;;;;19.23;47.16;101160.81;4954013;28;100001;-60
2023/09/30 01:44:59;;;;;;;;;;;;;;;19.18;47.11;101171.81;4955637;28;100448;-61
2023/09/30 01:47:25;;;;;;;;;;;;;;;19.16;47.03;101168.59;4948280;28;98195;-55
2023/09/30 01:49:51;;;;;;;;;;;;;;;19.14;47.30;101182.59;4936470;28;98522;-55
2023/09/30 01:52:17;;;;;;;;;;;;;;;19.11;47.76;101180.47;4946701;28;100329;-61
2023/09/30 01:54:43;;;;;;;;;;;;;;;19.08;46.99;101192.81;4941883;28;98114;-56
2023/09/30 01:57:10;;;;;;;;;;;;;;;19.06;46.76;101189.59;4958880;28;99723;-56
2023/09/30 01:59:35;;;;;;;;;;;;;;;19.03;47.34;101198.41;4929934;28;98214;-60
2023/09/30 02:02:02;;;;;;;;;;;;;;;18.99;47.51;101186.47;4959381;28;103338;-60
2023/09/30 02:04:29;;;;;;;;;;;;;;;18.98;47.08;101187.59;4968831;27;98114;-60
2023/09/30 02:06:55;;;;;;;;;;;;;;;18.94;47.42;101188.47;4968070;27;99437;-55
2023/09/30 02:09:21;;;;;;;;;;;;;;;18.92;47.27;101194.25;4957232;28;98249;-60
2023/09/30 02:11:47;;;;;;;;;;;;;;;18.89;46.89;101208.53;4926684;28;99652;-61
2023/09/30 02:14:14;;;;;;;;;;;;;;;18.86;46.86;101209.97;4956174;28;98475;-61
2023/09/30 02:16:40;;;;;;;;;;;;;;;18.85;46.93;101212.97;4925603;28;100696;-61
2023/09/30 02:19:06;;;;;;;;;;;;;;;18.84;47.91;101225.81;4959373;28;98110;-60
2023/09/30 02:21:32;;;;;;;;;;;;;;;18.80;48.46;101224.81;4938661;28;98083;-60
2023/09/30 02:23:58;;;;;;;;;;;;;;;18.76;47.14;101226.53;4948944;28;99432;-55
2023/09/30 02:26:27;;;;;;;;;;;;;;;18.73;47.39;101227.13;4960247;28;99195;-61
2023/09/30 02:28:53;;;;;;;;;;;;;;;18.71;48.53;101243.03;4960865;28;98306;-61
2023/09/30 02:31:19;;;;;;;;;;;;;;;18.68;47.18;101242.78;4962968;28;99185;-56
2023/09/30 02:33:46;;;;;;;;;;;;;;;18.64;47.32;101250.78;4943281;28;98673;-55
2023/09/30 02:36:13;;;;;;;;;;;;;;;18.60;47.37;101253.31;4958448;28;98182;-56
2023/09/30 02:38:40;;;;;;;;;;;;;;;18.60;47.45;101252.50;4957928;28;98061;-56
2023/09/30 02:41:06;;;;;;;;;;;;;;;18.57;47.11;101255.81;4961262;28;99523;-61
2023/09/30 02:43:32;;;;;;;;;;;;;;;18.54;46.76;101251.78;4937651;28;122018;-60
2023/09/30 02:45:58;;;;;;;;;;;;;;;18.54;46.84;101264.59;4944318;28;98145;-55
2023/09/30 02:48:24;;;;;;;;;;;;;;;18.54;46.76;101273.59;4938042;28;98210;-60
2023/09/30 02:50:51;;;;;;;;;;;;;;;18.54;46.76;101281.00;4960013;27;107284;-55
2023/09/30 02:53:16;;;;;;;;;;;;;;;18.52;47.21;101286.75;4973733;27;99408;-60
2023/09/30 02:55:43;;;;;;;;;;;;;;;18.51;46.86;101285.16;4940521;28;99000;-56
2023/09/30 02:58:09;;;;;;;;;;;;;;;18.50;46.77;101296.34;4956414;28;98256;-55
2023/09/30 03:00:37;;;;;;;;;;;;;;;18.49;47.36;101303.75;4942716;28;98141;-60
2023/09/30 03:03:04;;;;;;;;;;;;;;;18.47;47.33;101305.97;4955486;28;99882;-55
2023/09/30 03:05:33;;;;;;;;;;;;;;;18.43;47.62;101310.41;4937351;28;99058;-61
2023/09/30 03:07:59;;;;;;;;;;;;;;;18.40;46.78;101305.53;4932704;28;98069;-60
2023/09/30 03:10:26;;;;;;;;;;;;;;;18.38;47.06;101305.03;4958553;28;101544;-56
2023/09/30 03:13:05;;;;;;;;;;;;;;;18.34;46.83;101318.44;4942117;28;98067;-60
2023/09/30 03:15:32;;;;;;;;;;;;;;;18.33;46.70;101316.03;4946336;27;98344;-60
2023/09/30 03:17:59;;;;;;;;;;;;;;;18.30;46.67;101322.06;4919897;28;98233;-60
2023/09/30 03:20:26;;;;;;;;;;;;;;;18.28;47.62;101329.78;4925565;28;98189;-55
2023/09/30 03:22:52;;;;;;;;;;;;;;;18.25;47.96;101338.53;4941970;28;98681;-55
2023/09/30 03:25:20;;;;;;;;;;;;;;;18.20;47.10;101333.19;4958162;28;98706;-60
2023/09/30 03:27:47;;;;;;;;;;;;;;;18.15;46.85;101336.78;4941189;28;99381;-55
2023/09/30 03:30:15;;;;;;;;;;;;;;;18.11;47.01;101352.13;4925535;28;98991;-60
2023/09/30 03:32:41;;;;;;;;;;;;;;;18.06;47.22;101355.75;4940266;28;98322;-60
2023/09/30 03:35:15;;;;;;;;;;;;;;;18.02;46.91;101362.09;4941427;28;98458;-55
2023/09/30 03:37:41;;;;;;;;;;;;;;;17.98;46.86;101367.31;4945639;28;97991;-60
2023/09/30 03:40:19;;;;;;;;;;;;;;;17.94;47.08;101377.19;4956401;28;98090;-55
2023/09/30 03:42:49;;;;;;;;;;;;;;;17.91;47.38;101381.31;4927035;28;99069;-55
2023/09/30 03:45:15;;;;;;;;;;;;;;;17.87;46.95;101383.00;4954017;28;98238;-60
2023/09/30 03:47:41;;;;;;;;;;;;;;;17.84;46.87;101394.53;4959804;27;99057;-60
2023/09/30 03:50:14;;;;;;;;;;;;;;;17.84;46.79;101404.59;4954656;28;99041;-54
2023/09/30 03:52:43;;;;;;;;;;;;;;;17.82;46.57;101402.19;4960513;28;99707;-55
2023/09/30 03:55:12;;;;;;;;;;;;;;;17.81;46.67;101402.47;4940686;28;99054;-54
2023/09/30 03:57:38;;;;;;;;;;;;;;;17.77;46.57;101399.53;4957098;28;98212;-55
2023/09/30 04:00:11;;;;;;;;;;;;;;;17.76;46.70;101414.25;4942826;28;99978;-54
2023/09/30 04:02:37;;;;;;;;;;;;;;;17.73;46.64;101412.09;4945411;28;99785;-60
2023/09/30 04:05:05;;;;;;;;;;;;;;;17.74;46.57;101419.16;4961132;28;98064;-54
2023/09/30 04:07:32;;;;;;;;;;;;;;;17.73;46.45;101414.00;4944893;28;98012;-54
2023/09/30 04:10:01;;;;;;;;;;;;;;;17.71;46.38;101414.28;4922296;28;99809;-54
2023/09/30 04:12:27;;;;;;;;;;;;;;;17.69;46.40;101410.25;4928203;28;98247;-54
2023/09/30 04:14:53;;;;;;;;;;;;;;;17.66;46.39;101417.09;4945089;28;98874;-55
2023/09/30 04:17:19;;;;;;;;;;;;;;;17.63;46.34;101417.66;4948145;28;98169;-55
2023/09/30 04:19:46;;;;;;;;;;;;;;;17.60;46.22;101419.03;4928568;28;129098;-55
2023/09/30 04:22:13;;;;;;;;;;;;;;;17.58;46.37;101425.91;4945510;28;98367;-54
2023/09/30 04:24:39;;;;;;;;;;;;;;;17.55;46.59;101432.75;4960237;28;98108;-60
2023/09/30 04:27:07;;;;;;;;;;;;;;;17.54;46.46;101433.06;4950514;28;98484;-54
2023/09/30 04:29:34;;;;;;;;;;;;;;;17.53;46.40;101434.97;4955202;28;98506;-60
2023/09/30 04:32:00;;;;;;;;;;;;;;;17.51;46.37;101433.63;4948772;28;97986;-59
2023/09/30 04:34:27;;;;;;;;;;;;;;;17.50;46.34;101438.28;4957419;28;98130;-55
2023/09/30 04:36:54;;;;;;;;;;;;;;;17.47;46.29;101438.84;4937388;28;98282;-59
2023/09/30 04:39:20;;;;;;;;;;;;;;;17.46;46.23;101439.94;4944609;28;98138;-60
2023/09/30 04:41:46;;;;;;;;;;;;;;;17.42;46.43;101433.47;4960495;28;98039;-60
2023/09/30 04:44:12;;;;;;;;;;;;;;;17.41;46.29;101446.28;4973434;27;98338;-54
2023/09/30 04:46:46;;;;;;;;;;;;;;;17.41;46.34;101448.19;4958766;28;123943;-61
2023/09/30 04:49:14;;;;;;;;;;;;;;;17.38;46.42;101462.38;4958090;28;97970;-54
2023/09/30 04:51:41;;;;;;;;;;;;;;;17.35;46.24;101454.78;4963298;28;105405;-54
2023/09/30 04:54:08;;;;;;;;;;;;;;;17.31;46.43;101457.28;4945214;28;101252;-55
2023/09/30 04:56:35;;;;;;;;;;;;;;;17.30;46.19;101465.75;4957482;28;98681;-55
2023/09/30 04:59:02;;;;;;;;;;;;;;;17.28;46.29;101476.91;4959956;28;98268;-60
2023/09/30 05:01:28;;;;;;;;;;;;;;;17.25;46.31;101474.78;4924589;28;98460;-60
2023/09/30 05:03:57;;;;;;;;;;;;;;;17.21;46.33;101481.88;4957409;28;122899;-55
2023/09/30 05:06:23;;;;;;;;;;;;;;;17.21;46.24;101475.63;4961221;28;99390;-59
2023/09/30 05:08:49;;;;;;;;;;;;;;;17.20;46.27;101488.44;4959219;28;98372;-54
2023/09/30 05:11:15;;;;;;;;;;;;;;;17.21;46.14;101486.53;4958007;28;98208;-54
2023/09/30 05:13:42;;;;;;;;;;;;;;;17.22;46.14;101490.91;4947915;28;129253;-55
2023/09/30 05:16:08;;;;;;;;;;;;;;;17.22;46.32;101499.88;4971558;27;98375;-57
2023/09/30 05:18:34;;;;;;;;;;;;;;;17.21;46.17;101505.59;4959895;28;98990;-55
2023/09/30 05:21:00;;;;;;;;;;;;;;;17.22;46.27;101504.53;4951143;28;98179;-55
2023/09/30 05:23:26;;;;;;;;;;;;;;;17.23;46.09;101498.78;4937213;28;97991;-55
2023/09/30 05:25:52;;;;;;;;;;;;;;;17.27;46.10;101499.81;4936158;28;123785;-60
2023/09/30 05:28:20;;;;;;;;;;;;;;;17.30;46.01;101499.25;4966041;27;99420;-55
2023/09/30 05:30:46;;;;;;;;;;;;;;;17.36;45.86;101492.63;4953704;28;98425;-60
2023/09/30 05:33:14;;;;;;;;;;;;;;;17.38;45.98;101474.09;4950434;28;99746;-61
2023/09/30 05:35:41;;;;;;;;;;;;;;;17.43;45.97;101475.94;4954783;28;98664;-60
2023/09/30 05:38:10;;;;;;;;;;;;;;;17.46;45.91;101466.41;4936760;28;98804;-60
2023/09/30 05:40:37;;;;;;;;;;;;;;;17.52;45.72;101470.66;4953945;28;101466;-60
2023/09/30 05:43:05;;;;;;;;;;;;;;;17.55;45.78;101475.56;4956501;28;112763;-55
2023/09/30 05:45:34;;;;;;;;;;;;;;;17.58;45.82;101473.06;4953022;28;98692;-60
2023/09/30 05:48:03;;;;;;;;;;;;;;;17.62;45.69;101484.19;4936494;28;98289;-60
2023/09/30 05:50:29;;;;;;;;;;;;;;;17.67;45.82;101484.13;4952523;28;98036;-55
2023/09/30 05:52:55;;;;;;;;;;;;;;;17.72;45.59;101492.25;4951148;28;127590;-55
2023/09/30 05:55:22;;;;;;;;;;;;;;;17.77;45.53;101485.97;4938748;28;98778;-61
2023/09/30 05:57:52;;;;;;;;;;;;;;;17.83;45.60;101491.06;4938614;28;102683;-55
2023/09/30 06:00:33;;;;;;;;;;;;;;;17.87;45.39;101494.81;4942476;28;98916;-60
2023/09/30 06:03:00;;;;;;;;;;;;;;;17.94;45.35;101501.84;4969131;27;99205;-60
2023/09/30 06:05:26;;;;;;;;;;;;;;;17.97;45.30;101504.81;4919985;28;104019;-55
2023/09/30 06:07:54;;;;;;;;;;;;;;;17.98;45.34;101511.88;4942907;28;98818;-60
2023/09/30 06:10:20;;;;;;;;;;;;;;;18.01;45.57;101510.50;4943194;28;99672;-55
2023/09/30 06:12:54;;;;;;;;;;;;;;;18.02;45.49;101517.56;4918770;28;98548;-55
2023/09/30 06:15:21;;;;;;;;;;;;;;;18.04;45.36;101524.38;4953989;28;98400;-58
2023/09/30 06:17:49;;;;;;;;;;;;;;;18.08;45.38;101524.59;4941953;28;98117;-55
2023/09/30 06:20:18;;;;;;;;;;;;;;;18.11;45.18;101535.72;4926668;28;99352;-55
2023/09/30 06:22:49;;;;;;;;;;;;;;;18.13;45.33;101533.50;4918385;28;98284;-55
2023/09/30 06:25:16;;;;;;;;;;;;;;;18.15;45.33;101544.94;4940853;28;99594;-60
2023/09/30 06:27:46;;;;;;;;;;;;;;;18.17;45.40;101550.13;4936268;28;99869;-60
2023/09/30 06:30:13;;;;;;;;;;;;;;;18.17;45.24;101555.56;4945043;28;99931;-60
2023/09/30 06:32:40;;;;;;;;;;;;;;;18.15;45.42;101558.56;4926959;28;98143;-55
2023/09/30 06:35:10;;;;;;;;;;;;;;;18.16;45.38;101578.50;4960029;28;98669;-60
2023/09/30 06:37:41;;;;;;;;;;;;;;;18.14;45.38;101586.97;4955765;28;98506;-60
2023/09/30 06:40:09;;;;;;;;;;;;;;;18.12;45.37;101589.19;4934637;28;97940;-61
2023/09/30 06:42:35;;;;;;;;;;;;;;;18.11;45.34;101601.19;4965604;27;98214;-60
2023/09/30 06:45:05;;;;;;;;;;;;;;;18.05;45.66;101596.09;4916718;28;98047;-60
2023/09/30 06:47:35;;;;;;;;;;;;;;;18.00;45.56;101596.13;4943615;28;99173;-55
2023/09/30 06:50:07;;;;;;;;;;;;;;;18.00;45.61;101607.03;4936416;28;98393;-55
2023/09/30 06:52:41;;;;;;;;;;;;;;;18.03;45.44;101601.81;4935358;28;100654;-60
2023/09/30 06:55:08;;;;;;;;;;;;;;;18.07;45.39;101605.59;4952957;28;100350;-61
2023/09/30 06:57:34;;;;;;;;;;;;;;;18.20;45.29;101604.09;4939612;28;99457;-61
2023/09/30 07:00:03;;;;;;;;;;;;;;;18.37;44.90;101603.63;4921770;28;98182;-56
2023/09/30 07:02:30;;;;;;;;;;;;;;;18.61;44.93;101607.13;4956424;28;99170;-60
2023/09/30 07:04:57;;;;;;;;;;;;;;;18.88;44.81;101603.75;4951855;28;98143;-55
2023/09/30 07:07:23;;;;;;;;;;;;;;;19.05;44.58;101610.63;4955162;28;99795;-55
2023/09/30 07:09:49;;;;;;;;;;;;;;;19.26;44.44;101611.13;4937186;28;98944;-55
2023/09/30 07:12:15;;;;;;;;;;;;;;;19.32;44.34;101621.66;4952578;28;99594;-55
2023/09/30 07:14:41;;;;;;;;;;;;;;;19.35;44.45;101626.53;4918545;28;98755;-61
2023/09/30 07:17:07;;;;;;;;;;;;;;;19.32;44.66;101618.91;4949723;28;122342;-61
2023/09/30 07:19:34;;;;;;;;;;;;;;;19.22;44.64;101627.31;4954828;28;98321;-56
2023/09/30 07:22:02;;;;;;;;;;;;;;;19.10;44.95;101622.28;4956132;28;99746;-61
2023/09/30 07:24:28;;;;;;;;;;;;;;;19.03;45.03;101629.25;4954158;28;98495;-60
2023/09/30 07:26:55;;;;;;;;;;;;;;;19.02;44.86;101633.06;4954028;28;98730;-61
2023/09/30 07:29:21;;;;;;;;;;;;;;;19.07;45.09;101636.53;4957127;28;98407;-61
2023/09/30 07:31:47;;;;;;;;;;;;;;;19.25;44.58;101634.06;4955803;28;98052;-56
2023/09/30 07:34:13;;;;;;;;;;;;;;;19.48;44.53;101632.34;4970329;27;98853;-61
2023/09/30 07:36:39;;;;;;;;;;;;;;;19.82;44.15;101623.84;4922540;28;99609;-61
2023/09/30 07:39:05;;;;;;;;;;;;;;;20.10;43.95;101624.69;4938758;28;98502;-55
2023/09/30 07:41:36;;;;;;;;;;;;;;;20.17;44.01;101618.81;4955777;28;121915;-61
2023/09/30 07:44:02;;;;;;;;;;;;;;;20.25;43.90;101623.56;4953945;28;98317;-61
2023/09/30 07:46:28;;;;;;;;;;;;;;;20.41;44.53;101624.06;4956776;28;99480;-55
2023/09/30 07:48:55;;;;;;;;;;;;;;;20.57;44.00;101622.66;4942278;28;101442;-55
2023/09/30 07:51:21;;;;;;;;;;;;;;;20.67;43.67;101614.22;4960748;28;98537;-61
2023/09/30 07:53:47;;;;;;;;;;;;;;;20.82;43.64;101613.84;4969909;27;98879;-55
2023/09/30 07:56:14;;;;;;;;;;;;;;;21.11;43.36;101617.34;4971421;27;98549;-55
2023/09/30 07:58:40;;;;;;;;;;;;;;;21.40;43.19;101623.22;4954016;28;99455;-61
2023/09/30 08:01:08;;;;;;;;;;;;;;;22.12;42.62;101624.88;4942293;28;98262;-56
2023/09/30 08:03:35;;;;;;;;;;;;;;;22.19;42.58;101635.44;4958386;28;102583;-61
2023/09/30 08:06:02;;;;;;;;;;;;;;;22.37;42.61;101633.56;4956544;28;98551;-61
2023/09/30 08:08:29;;;;;;;;;;;;;;;22.83;42.25;101629.41;4956347;28;98546;-61
2023/09/30 08:10:56;;;;;;;;;;;;;;;23.30;41.62;101635.91;4921345;28;98304;-55
2023/09/30 08:13:23;;;;;;;;;;;;;;;23.39;42.04;101633.97;4952836;28;98275;-55
2023/09/30 08:15:51;;;;;;;;;;;;;;;23.44;41.99;101633.78;4935950;28;98232;-61
2023/09/30 08:18:17;;;;;;;;;;;;;;;23.36;42.33;101640.09;4954893;28;99413;-55
2023/09/30 08:20:43;;;;;;;;;;;;;;;23.01;42.58;101645.63;4963249;28;99059;-61
2023/09/30 08:23:11;;;;;;;;;;;;;;;22.70;42.86;101637.47;4970976;27;101180;-56
2023/09/30 08:25:37;;;;;;;;;;;;;;;22.88;42.74;101637.53;4975766;27;98428;-55
2023/09/30 08:28:04;;;;;;;;;;;;;;;23.01;42.60;101644.81;4972240;27;99496;-61
2023/09/30 08:30:33;;;;;;;;;;;;;;;22.85;42.89;101638.97;4958938;28;98558;-56
2023/09/30 08:32:59;;;;;;;;;;;;;;;22.79;43.05;101642.97;4938951;28;98657;-61
2023/09/30 08:35:25;;;;;;;;;;;;;;;23.00;42.78;101648.72;4956550;28;99561;-55
2023/09/30 08:37:51;;;;;;;;;;;;;;;23.86;41.80;101652.50;4933788;28;100235;-61
2023/09/30 08:40:21;;;;;;;;;;;;;;;24.05;41.79;101641.91;4940814;28;104944;-56
2023/09/30 08:42:50;;;;;;;;;;;;;;;24.15;41.94;101640.72;4937293;28;98158;-61
2023/09/30 08:45:16;;;;;;;;;;;;;;;23.79;42.23;101654.94;4960187;28;99288;-61
2023/09/30 08:47:42;;;;;;;;;;;;;;;23.95;42.35;101634.81;4960139;28;120176;-61
2023/09/30 08:50:10;;;;;;;;;;;;;;;24.50;41.62;101630.34;4941181;28;108446;-61
2023/09/30 08:52:39;;;;;;;;;;;;;;;24.30;41.84;101642.09;4923257;28;98262;-55
2023/09/30 08:55:08;;;;;;;;;;;;;;;24.29;42.22;101646.81;4941432;28;98450;-61
2023/09/30 08:57:40;;;;;;;;;;;;;;;24.13;42.34;101649.31;4939207;28;99540;-61
2023/09/30 09:00:07;;;;;;;;;;;;;;;23.99;42.46;101641.25;4967373;27;98953;-61
2023/09/30 09:02:36;;;;;;;;;;;;;;;23.93;42.62;101650.84;4968066;27;98096;-55
2023/09/30 09:05:03;;;;;;;;;;;;;;;23.85;42.85;101656.38;4937558;28;97973;-56
2023/09/30 09:07:30;;;;;;;;;;;;;;;23.75;42.79;101652.03;4956572;28;98303;-61
2023/09/30 09:10:06;;;;;;;;;;;;;;;23.64;42.53;101654.28;4938809;28;98813;-60
2023/09/30 09:12:34;;;;;;;;;;;;;;;23.53;42.72;101653.81;4958630;28;98878;-61
2023/09/30 09:15:00;;;;;;;;;;;;;;;23.50;42.85;101659.16;4935453;28;98947;-55
2023/09/30 09:17:41;;;;;;;;;;;;;;;23.73;42.71;101655.09;4936524;28;98513;-61
2023/09/30 09:20:10;;;;;;;;;;;;;;;24.07;42.46;101661.63;4933732;28;99479;-55
2023/09/30 09:22:43;;;;;;;;;;;;;;;24.59;41.85;101664.16;4969278;27;98094;-56
2023/09/30 09:25:09;;;;;;;;;;;;;;;25.06;41.51;101657.66;4934222;28;98140;-61
2023/09/30 09:27:36;;;;;;;;;;;;;;;25.46;41.08;101656.00;4955574;28;101054;-61
2023/09/30 09:30:19;;;;;;;;;;;;;;;25.71;41.07;101676.22;4936688;28;99621;-56
2023/09/30 09:33:11;;;;;;;;;;;;;;;26.26;40.48;101670.59;4942421;28;98025;-56
2023/09/30 09:35:38;;;;;;;;;;;;;;;26.84;40.23;101669.28;4930899;28;98313;-56
2023/09/30 09:38:07;;;;;;;;;;;;;;;27.42;39.84;101675.31;4958617;28;98627;-56
2023/09/30 09:40:40;;;;;;;;;;;;;;;27.78;39.86;101668.00;4955445;28;99724;-56
2023/09/30 09:43:06;;;;;;;;;;;;;;;27.93;39.89;101668.38;4920636;28;98701;-56
2023/09/30 09:45:34;;;;;;;;;;;;;;;27.97;40.02;101667.31;4958912;28;98546;-61
2023/09/30 09:48:00;;;;;;;;;;;;;;;28.20;39.99;101656.38;4966101;27;98626;-56
2023/09/30 09:50:26;;;;;;;;;;;;;;;27.84;40.15;101661.06;4952744;28;98124;-57
2023/09/30 09:52:55;;;;;;;;;;;;;;;28.32;39.53;101663.78;4941237;28;98173;-56
2023/09/30 09:55:22;;;;;;;;;;;;;;;28.66;39.46;101656.69;4937051;28;100842;-62
2023/09/30 09:57:48;;;;;;;;;;;;;;;28.81;39.21;101658.63;4939646;28;98800;-56
2023/09/30 10:00:25;;;;;;;;;;;;;;;29.11;39.43;101667.19;4955254;28;98767;-56
2023/09/30 10:02:51;;;;;;;;;;;;;;;29.48;39.02;101663.16;4937330;28;99177;-56
2023/09/30 10:05:18;;;;;;;;;;;;;;;29.41;38.45;101652.72;4955065;28;98633;-62
2023/09/30 10:07:45;;;;;;;;;;;;;;;28.75;39.63;101656.50;4931590;28;100234;-62
2023/09/30 10:10:15;;;;;;;;;;;;;;;29.27;39.23;101644.09;4954322;28;98049;-56
2023/09/30 10:12:41;;;;;;;;;;;;;;;29.21;39.25;101649.16;4935478;28;98349;-62
2023/09/30 10:15:25;;;;;;;;;;;;;;;29.42;38.75;101651.53;4939386;28;99799;-61
2023/09/30 10:18:09;;;;;;;;;;;;;;;29.42;39.23;101657.09;4965840;27;98239;-56
2023/09/30 10:20:36;;;;;;;;;;;;;;;29.68;39.07;101650.06;4953914;28;98373;-62
2023/09/30 10:23:17;;;;;;;;;;;;;;;29.81;38.75;101643.94;4942407;28;98229;-56
2023/09/30 10:25:51;;;;;;;;;;;;;;;29.95;38.58;101648.94;4968919;27;98371;-57
2023/09/30 10:28:41;;;;;;;;;;;;;;;30.13;39.10;101648.44;4936991;28;98793;-61
2023/09/30 10:31:16;;;;;;;;;;;;;;;30.43;38.72;101648.53;4928911;28;98432;-62
2023/09/30 10:34:01;;;;;;;;;;;;;;;30.57;38.62;101649.50;4954024;28;98832;-57
2023/09/30 10:36:40;;;;;;;;;;;;;;;30.76;38.88;101650.59;4952785;28;97974;-62
2023/09/30 10:39:13;;;;;;;;;;;;;;;31.09;38.69;101649.00;4940457;28;99676;-62
2023/09/30 10:41:40;;;;;;;;;;;;;;;31.14;38.60;101640.34;4956794;28;98011;-56
2023/09/30 10:44:28;;;;;;;;;;;;;;;31.22;38.62;101642.81;4951097;28;98646;-56
2023/09/30 10:46:58;;;;;;;;;;;;;;;31.53;38.61;101641.59;4952587;28;98305;-61
2023/09/30 10:49:23;;;;;;;;;;;;;;;31.58;38.45;101639.63;4956827;27;99436;-56
2023/09/30 10:51:50;;;;;;;;;;;;;;;31.75;38.62;101641.78;4953583;28;99724;-62
2023/09/30 10:54:30;;;;;;;;;;;;;;;31.92;38.29;101632.00;4887230;28;106227;-62
2023/09/30 10:56:58;;;;;;;;;;;;;;;31.15;39.11;101634.38;4948579;28;100734;-62
2023/09/30 10:59:26;;;;;;;;;;;;;;;31.42;38.87;101631.53;4938703;28;99145;-62
2023/09/30 11:01:52;;;;;;;;;;;;;;;31.70;38.51;101636.56;4937936;28;101548;-57
2023/09/30 11:04:19;;;;;;;;;;;;;;;31.64;38.66;101638.13;4952677;28;99613;-56
2023/09/30 11:06:45;;;;;;;;;;;;;;;32.44;38.10;101635.59;4913534;28;99919;-62
2023/09/30 11:09:16;;;;;;;;;;;;;;;32.22;38.40;101637.38;4950466;28;98334;-59
2023/09/30 11:11:49;;;;;;;;;;;;;;;32.59;37.98;101633.69;4900460;27;1893463;-54
2023/09/30 11:14:29;;;;;;;;;;;;;;;31.11;39.38;101633.53;4953272;28;97931;-54
2023/09/30 11:16:56;;;;;;;;;;;;;;;31.02;39.39;101628.28;4953257;28;100718;-54
2023/09/30 11:19:23;;;;;;;;;;;;;;;32.17;37.92;101627.41;4956779;28;98402;-60
2023/09/30 11:21:53;;;;;;;;;;;;;;;32.58;37.89;101635.69;4944666;28;98437;-54
2023/09/30 11:24:19;;;;;;;;;;;;;;;31.44;38.83;101626.34;4939668;28;99469;-54
2023/09/30 11:26:46;;;;;;;;;;;;;;;31.21;38.94;101620.94;4919130;28;108008;-60
2023/09/30 11:29:17;;;;;;;;;;;;;;;29.98;40.24;101619.59;4953463;28;98257;-61
2023/09/30 11:31:44;;;;;;;;;;;;;;;29.37;40.52;101620.50;4941070;28;98204;-55
2023/09/30 11:34:11;;;;;;;;;;;;;;;30.74;38.93;101619.59;4951364;28;99789;-61
2023/09/30 11:36:47;;;;;;;;;;;;;;;31.52;38.32;101611.34;4954746;28;100397;-56
2023/09/30 11:39:30;;;;;;;;;;;;;;;31.92;37.93;101616.09;4929453;28;98187;-55
2023/09/30 11:42:00;;;;;;;;;;;;;;;31.32;38.62;101615.50;4965442;28;99710;-55
2023/09/30 11:44:27;;;;;;;;;;;;;;;31.09;38.90;101605.31;4937784;28;98844;-55
2023/09/30 11:47:04;;;;;;;;;;;;;;;31.94;37.92;101602.53;4939014;28;99976;-62
2023/09/30 11:49:40;;;;;;;;;;;;;;;32.37;37.89;101616.78;4917054;28;100788;-62
2023/09/30 11:52:08;;;;;;;;;;;;;;;32.54;37.50;101615.31;4954769;28;99033;-61
2023/09/30 11:54:37;;;;;;;;;;;;;;;32.56;37.31;101607.34;4919521;28;98601;-56
2023/09/30 11:57:03;;;;;;;;;;;;;;;32.43;36.93;101604.09;4954265;28;98764;-61
2023/09/30 11:59:29;;;;;;;;;;;;;;;31.94;38.29;101598.97;4943232;28;98311;-56
2023/09/30 12:01:56;;;;;;;;;;;;;;;31.26;38.31;101599.09;4943739;28;98112;-56
2023/09/30 12:04:24;;;;;;;;;;;;;;;30.11;39.34;101601.56;4936602;28;98730;-62
2023/09/30 12:06:50;;;;;;;;;;;;;;;29.24;40.53;101601.25;4964159;27;98281;-62
2023/09/30 12:09:16;;;;;;;;;;;;;;;29.21;39.84;101590.88;4948621;28;98347;-57
2023/09/30 12:11:43;;;;;;;;;;;;;;;29.65;38.41;101590.50;4957667;28;99045;-57
2023/09/30 12:14:11;;;;;;;;;;;;;;;28.90;38.43;101591.81;4942839;27;99960;-57
2023/09/30 12:16:37;;;;;;;;;;;;;;;29.01;39.10;101587.31;4925779;28;98375;-63
2023/09/30 12:19:05;;;;;;;;;;;;;;;29.31;39.30;101589.47;4941973;28;98315;-63
2023/09/30 12:21:31;;;;;;;;;;;;;;;29.63;38.33;101584.50;4957596;28;98025;-57
2023/09/30 12:23:57;;;;;;;;;;;;;;;29.79;38.53;101584.38;4942401;28;98306;-63
2023/09/30 12:26:24;;;;;;;;;;;;;;;30.09;38.38;101568.56;4960138;27;99471;-57
2023/09/30 12:28:50;;;;;;;;;;;;;;;30.37;38.62;101572.97;4955477;28;100020;-57
2023/09/30 12:31:16;;;;;;;;;;;;;;;30.53;38.16;101570.00;4955667;28;98840;-63
2023/09/30 12:33:42;;;;;;;;;;;;;;;30.46;38.53;101569.94;4957739;27;98233;-57
2023/09/30 12:36:08;;;;;;;;;;;;;;;29.66;39.06;101571.84;4948216;28;99501;-57
2023/09/30 12:38:34;;;;;;;;;;;;;;;29.70;39.19;101562.41;4946228;28;98226;-63
2023/09/30 12:41:00;;;;;;;;;;;;;;;28.94;39.87;101562.19;4958526;28;98314;-63